Terminal Aerodrome Forecast
Issued by NWS San Angelo, TX

Home | Current Version | Previous Version | Text Only | Print | Product List | Glossary On
Versions: 1 2 3 4 5 6 7 8 9 10 11 12 13 14 15 16 17
000
FTUS44 KSJT 161100 RRA
TAFABI
TAF
KABI 161143Z 1612/1712 16007KT P6SM BKN100
     FM161800 16006KT P6SM VCSH BKN050
     FM170000 13005KT P6SM SCT040 BKN150=

USA.gov is the U.S. government's official web portal to all federal, state and local government web resources and services.